Koushinmaru No.5 — JL6695 — position and weather

sailwx.info

Track history (hours):
 
Tides and Currents Weather Stations Pressure Air Temp Water Temp Dewpoint Dewpoint Depression Visibility Wind Speed Wind Dir Waves Ship Positions

Koushinmaru No.5

Last reported at 2016-Aug-29 00:14 UTC. Time now 2016-Aug-30 03:15 UTC.
Position N 35°56' E 140°40'.

Length 75 m; draft 4.9 m.

Type: Cargo ship. MMSI: 431301703.

Date/timePositionNaut miles runAvg speedWind from/ knotsBaromVisibWave heightAir tempDewpointWater temp
2016-Aug-29 00:14N 35°56' E 140°40'0 0.0
2016-Aug-28 02:21N 35°56' E 140°40'2 2.2
2016-Aug-28 01:18N 35°57' E 140°42'0 0.0
2016-Aug-28 00:31N 35°57' E 140°42'0 0.0
2016-Aug-27 23:08N 35°57' E 140°42'0 0.0
2016-Aug-27 21:33N 35°57' E 140°42'0 0.0
2016-Aug-27 20:33N 35°57' E 140°42'0 0.0
2016-Aug-27 19:29N 35°57' E 140°42'0 0.0
2016-Aug-27 18:32N 35°57' E 140°42'0 0.0
2016-Aug-27 17:26N 35°57' E 140°42'2 2.6
2016-Aug-27 16:33N 35°59' E 140°43'  
2016-Aug-24 02:25N 35°37' E 140°52'2410.2
2016-Aug-24 00:04N 35°18' E 140°34'2911.4
2016-Aug-23 21:30N 34°58' E 140°08'1511.6
2016-Aug-23 20:12N 34°52' E 139°51'710.6
2016-Aug-23 19:30N 34°56' E 139°44'1010.8
2016-Aug-23 18:34N 35°06' E 139°44'1110.8
2016-Aug-23 17:33N 35°17' E 139°45'9 9.4
2016-Aug-23 16:34N 35°26' E 139°46'10 9.7
2016-Aug-23 15:34N 35°34' E 139°51'4 4.3
2016-Aug-23 14:33N 35°38' E 139°48'0 0.0
2016-Aug-23 13:34N 35°38' E 139°48'0 0.0
2016-Aug-23 12:33N 35°38' E 139°48'0 0.0
2016-Aug-23 11:34N 35°38' E 139°48'0 0.0
2016-Aug-23 10:33N 35°38' E 139°48'0 0.0
2016-Aug-23 09:34N 35°38' E 139°48'0 0.0
2016-Aug-23 08:33N 35°38' E 139°48'0 0.0
2016-Aug-23 07:33N 35°38' E 139°48'0 0.0
2016-Aug-23 06:33N 35°38' E 139°48'0 0.0
2016-Aug-23 05:34N 35°38' E 139°48'0 0.0
2016-Aug-23 04:33N 35°38' E 139°48'0 0.0
2016-Aug-23 03:33N 35°38' E 139°48'2 1.7
2016-Aug-23 02:34N 35°37' E 139°50'9 9.1
2016-Aug-23 01:34N 35°28' E 139°51'4 3.8
2016-Aug-23 00:34N 35°24' E 139°50'0 0.0
2016-Aug-22 23:34N 35°24' E 139°50'0 0.1
2016-Aug-22 22:34N 35°24' E 139°51'0 0.1
2016-Aug-22 21:34N 35°24' E 139°50'0 0.0
2016-Aug-22 20:34N 35°24' E 139°50'0 0.0
2016-Aug-22 19:33N 35°24' E 139°50'0 0.0
2016-Aug-22 18:34N 35°24' E 139°50'0 0.0
2016-Aug-22 17:34N 35°24' E 139°50'0 0.0
2016-Aug-22 16:33N 35°24' E 139°50'0 0.0
2016-Aug-22 15:34N 35°24' E 139°50'0 0.0
2016-Aug-22 14:33N 35°24' E 139°50'0 0.0
2016-Aug-22 13:33N 35°24' E 139°50'0 0.0
2016-Aug-22 12:33N 35°24' E 139°50'0 0.0
2016-Aug-22 11:33N 35°24' E 139°50'0 0.0
2016-Aug-22 10:33N 35°24' E 139°50'0 0.0
2016-Aug-22 09:33N 35°24' E 139°50'0 0.0
2016-Aug-22 08:33N 35°24' E 139°50'0 0.0
2016-Aug-22 07:33N 35°24' E 139°50'0 0.0
2016-Aug-22 06:33N 35°24' E 139°50'0 0.1
2016-Aug-22 05:33N 35°24' E 139°50'0 0.2
2016-Aug-22 04:30N 35°24' E 139°50'0 0.1
2016-Aug-22 03:33N 35°24' E 139°50'0 0.0
2016-Aug-22 02:33N 35°24' E 139°50'0 0.0
2016-Aug-22 01:32N 35°24' E 139°50'0 0.0
2016-Aug-22 00:30N 35°24' E 139°50'0 0.0
2016-Aug-21 23:31N 35°24' E 139°50'0 0.0
2016-Aug-21 22:31N 35°24' E 139°50'0 0.0
2016-Aug-21 21:29N 35°24' E 139°50'0 0.0
2016-Aug-21 20:34N 35°24' E 139°50'0 0.0
2016-Aug-21 19:33N 35°24' E 139°50'0 0.1
2016-Aug-21 18:28N 35°24' E 139°50'0 0.0
2016-Aug-21 17:31N 35°24' E 139°50'0 0.0
2016-Aug-21 16:30N 35°24' E 139°50'0 0.0
2016-Aug-21 15:25N 35°24' E 139°50'0 0.0
2016-Aug-21 14:33N 35°24' E 139°50'0 0.0
2016-Aug-21 13:33N 35°24' E 139°50'0 0.0
2016-Aug-21 12:33N 35°24' E 139°50'0 0.0
2016-Aug-21 11:33N 35°24' E 139°50'0 0.0
2016-Aug-21 10:33N 35°24' E 139°50'0 0.0
2016-Aug-21 09:33N 35°24' E 139°50'0 0.1
2016-Aug-21 08:33N 35°24' E 139°50'0 0.0
2016-Aug-21 07:33N 35°24' E 139°50'0 0.0
2016-Aug-21 06:33N 35°24' E 139°50'0 0.0
2016-Aug-21 05:34N 35°24' E 139°50'0 0.1
2016-Aug-21 04:34N 35°24' E 139°50'0 0.0
2016-Aug-21 03:33N 35°24' E 139°50'0 0.0
2016-Aug-21 02:33N 35°24' E 139°50'0 0.0
2016-Aug-21 01:34N 35°24' E 139°50'0 0.0
2016-Aug-21 00:33N 35°24' E 139°50'0 0.0
2016-Aug-20 23:33N 35°24' E 139°50'0 0.0
2016-Aug-20 22:33N 35°24' E 139°50'0 0.1
2016-Aug-20 21:34N 35°24' E 139°50'0 0.1
2016-Aug-20 20:34N 35°24' E 139°50'2 1.7
2016-Aug-20 19:33N 35°22' E 139°51'2 1.8
2016-Aug-20 18:33N 35°22' E 139°53'0 0.0
2016-Aug-20 09:33N 35°22' E 139°53'0 0.0
2016-Aug-20 08:33N 35°22' E 139°53'0 0.5
2016-Aug-20 07:34N 35°22' E 139°53'0 0.1
2016-Aug-20 06:33N 35°22' E 139°53'0 0.0
2016-Aug-20 05:33N 35°22' E 139°53'0 0.1
2016-Aug-20 04:33N 35°22' E 139°53'0 0.1
2016-Aug-20 03:33N 35°22' E 139°53'0 0.0
2016-Aug-20 02:33N 35°22' E 139°53'0 0.0
2016-Aug-20 01:33N 35°22' E 139°53'0 0.0
2016-Aug-20 00:33N 35°22' E 139°53'2 2.0
2016-Aug-19 23:33N 35°23' E 139°51'9 9.5
2016-Aug-19 22:33N 35°32' E 139°53'6 5.6
2016-Aug-19 21:33N 35°37' E 139°58'0 0.0
2016-Aug-19 20:33N 35°37' E 139°58'0 0.0
2016-Aug-19 19:32N 35°37' E 139°58'0 0.1
2016-Aug-19 18:33N 35°37' E 139°58'0 0.0
2016-Aug-19 17:33N 35°37' E 139°58'0 0.0
2016-Aug-19 16:33N 35°37' E 139°58'0 0.0
2016-Aug-19 15:33N 35°37' E 139°58'0 0.0
2016-Aug-19 14:33N 35°37' E 139°58'0 0.0
2016-Aug-19 13:33N 35°37' E 139°58'0 0.0
2016-Aug-19 12:33N 35°37' E 139°58'0 0.0
2016-Aug-19 11:33N 35°37' E 139°58'0 0.0
2016-Aug-19 10:33N 35°37' E 139°58'0 0.0
2016-Aug-19 09:33N 35°37' E 139°58'0 0.0
2016-Aug-19 08:33N 35°37' E 139°58'0 0.0
2016-Aug-19 07:33N 35°37' E 139°58'0 0.0
2016-Aug-19 06:33N 35°37' E 139°58'0 0.0
2016-Aug-19 05:33N 35°37' E 139°58'0 0.0
2016-Aug-19 04:33N 35°37' E 139°58'2 2.1
2016-Aug-19 03:33N 35°39' E 139°58'3 2.5
2016-Aug-19 02:33N 35°41' E 139°57'0 0.0
2016-Aug-19 01:33N 35°41' E 139°57'0 0.0
2016-Aug-19 00:33N 35°41' E 139°57'  
Track history (hours):
 
Tides and Currents Weather Stations Pressure Air Temp Water Temp Dewpoint Dewpoint Depression Visibility Wind Speed Wind Dir Waves Ship Positions

Koushinmaru No.5

Last reported at 2016-Aug-29 00:14 UTC. Time now 2016-Aug-30 03:15 UTC.
Position N 35°56' E 140°40'.

Length 75 m; draft 4.9 m.

Type: Cargo ship. MMSI: 431301703.

Date/timePositionNaut miles runAvg speedWind from/ knotsBaromVisibWave heightAir tempDewpointWater temp
2016-Aug-29 00:14N 35°56' E 140°40'0 0.0
2016-Aug-28 02:21N 35°56' E 140°40'2 2.2
2016-Aug-28 01:18N 35°57' E 140°42'0 0.0
2016-Aug-28 00:31N 35°57' E 140°42'0 0.0
2016-Aug-27 23:08N 35°57' E 140°42'0 0.0
2016-Aug-27 21:33N 35°57' E 140°42'0 0.0
2016-Aug-27 20:33N 35°57' E 140°42'0 0.0
2016-Aug-27 19:29N 35°57' E 140°42'0 0.0
2016-Aug-27 18:32N 35°57' E 140°42'0 0.0
2016-Aug-27 17:26N 35°57' E 140°42'2 2.6
2016-Aug-27 16:33N 35°59' E 140°43'  
2016-Aug-24 02:25N 35°37' E 140°52'2410.2
2016-Aug-24 00:04N 35°18' E 140°34'2911.4
2016-Aug-23 21:30N 34°58' E 140°08'1511.6
2016-Aug-23 20:12N 34°52' E 139°51'710.6
2016-Aug-23 19:30N 34°56' E 139°44'1010.8
2016-Aug-23 18:34N 35°06' E 139°44'1110.8
2016-Aug-23 17:33N 35°17' E 139°45'9 9.4
2016-Aug-23 16:34N 35°26' E 139°46'10 9.7
2016-Aug-23 15:34N 35°34' E 139°51'4 4.3
2016-Aug-23 14:33N 35°38' E 139°48'0 0.0
2016-Aug-23 13:34N 35°38' E 139°48'0 0.0
2016-Aug-23 12:33N 35°38' E 139°48'0 0.0
2016-Aug-23 11:34N 35°38' E 139°48'0 0.0
2016-Aug-23 10:33N 35°38' E 139°48'0 0.0
2016-Aug-23 09:34N 35°38' E 139°48'0 0.0
2016-Aug-23 08:33N 35°38' E 139°48'0 0.0
2016-Aug-23 07:33N 35°38' E 139°48'0 0.0
2016-Aug-23 06:33N 35°38' E 139°48'0 0.0
2016-Aug-23 05:34N 35°38' E 139°48'0 0.0
2016-Aug-23 04:33N 35°38' E 139°48'0 0.0
2016-Aug-23 03:33N 35°38' E 139°48'2 1.7
2016-Aug-23 02:34N 35°37' E 139°50'9 9.1
2016-Aug-23 01:34N 35°28' E 139°51'4 3.8
2016-Aug-23 00:34N 35°24' E 139°50'0 0.0
2016-Aug-22 23:34N 35°24' E 139°50'0 0.1
2016-Aug-22 22:34N 35°24' E 139°51'0 0.1
2016-Aug-22 21:34N 35°24' E 139°50'0 0.0
2016-Aug-22 20:34N 35°24' E 139°50'0 0.0
2016-Aug-22 19:33N 35°24' E 139°50'0 0.0
2016-Aug-22 18:34N 35°24' E 139°50'0 0.0
2016-Aug-22 17:34N 35°24' E 139°50'0 0.0
2016-Aug-22 16:33N 35°24' E 139°50'0 0.0
2016-Aug-22 15:34N 35°24' E 139°50'0 0.0
2016-Aug-22 14:33N 35°24' E 139°50'0 0.0
2016-Aug-22 13:33N 35°24' E 139°50'0 0.0
2016-Aug-22 12:33N 35°24' E 139°50'0 0.0
2016-Aug-22 11:33N 35°24' E 139°50'0 0.0
2016-Aug-22 10:33N 35°24' E 139°50'0 0.0
2016-Aug-22 09:33N 35°24' E 139°50'0 0.0
2016-Aug-22 08:33N 35°24' E 139°50'0 0.0
2016-Aug-22 07:33N 35°24' E 139°50'0 0.0
2016-Aug-22 06:33N 35°24' E 139°50'0 0.1
2016-Aug-22 05:33N 35°24' E 139°50'0 0.2
2016-Aug-22 04:30N 35°24' E 139°50'0 0.1
2016-Aug-22 03:33N 35°24' E 139°50'0 0.0
2016-Aug-22 02:33N 35°24' E 139°50'0 0.0
2016-Aug-22 01:32N 35°24' E 139°50'0 0.0
2016-Aug-22 00:30N 35°24' E 139°50'0 0.0
2016-Aug-21 23:31N 35°24' E 139°50'0 0.0
2016-Aug-21 22:31N 35°24' E 139°50'0 0.0
2016-Aug-21 21:29N 35°24' E 139°50'0 0.0
2016-Aug-21 20:34N 35°24' E 139°50'0 0.0
2016-Aug-21 19:33N 35°24' E 139°50'0 0.1
2016-Aug-21 18:28N 35°24' E 139°50'0 0.0
2016-Aug-21 17:31N 35°24' E 139°50'0 0.0
2016-Aug-21 16:30N 35°24' E 139°50'0 0.0
2016-Aug-21 15:25N 35°24' E 139°50'0 0.0
2016-Aug-21 14:33N 35°24' E 139°50'0 0.0
2016-Aug-21 13:33N 35°24' E 139°50'0 0.0
2016-Aug-21 12:33N 35°24' E 139°50'0 0.0
2016-Aug-21 11:33N 35°24' E 139°50'0 0.0
2016-Aug-21 10:33N 35°24' E 139°50'0 0.0
2016-Aug-21 09:33N 35°24' E 139°50'0 0.1
2016-Aug-21 08:33N 35°24' E 139°50'0 0.0
2016-Aug-21 07:33N 35°24' E 139°50'0 0.0
2016-Aug-21 06:33N 35°24' E 139°50'0 0.0
2016-Aug-21 05:34N 35°24' E 139°50'0 0.1
2016-Aug-21 04:34N 35°24' E 139°50'0 0.0
2016-Aug-21 03:33N 35°24' E 139°50'0 0.0
2016-Aug-21 02:33N 35°24' E 139°50'0 0.0
2016-Aug-21 01:34N 35°24' E 139°50'0 0.0
2016-Aug-21 00:33N 35°24' E 139°50'0 0.0
2016-Aug-20 23:33N 35°24' E 139°50'0 0.0
2016-Aug-20 22:33N 35°24' E 139°50'0 0.1
2016-Aug-20 21:34N 35°24' E 139°50'0 0.1
2016-Aug-20 20:34N 35°24' E 139°50'2 1.7
2016-Aug-20 19:33N 35°22' E 139°51'2 1.8
2016-Aug-20 18:33N 35°22' E 139°53'0 0.0
2016-Aug-20 09:33N 35°22' E 139°53'0 0.0
2016-Aug-20 08:33N 35°22' E 139°53'0 0.5
2016-Aug-20 07:34N 35°22' E 139°53'0 0.1
2016-Aug-20 06:33N 35°22' E 139°53'0 0.0
2016-Aug-20 05:33N 35°22' E 139°53'0 0.1
2016-Aug-20 04:33N 35°22' E 139°53'0 0.1
2016-Aug-20 03:33N 35°22' E 139°53'0 0.0
2016-Aug-20 02:33N 35°22' E 139°53'0 0.0
2016-Aug-20 01:33N 35°22' E 139°53'0 0.0
2016-Aug-20 00:33N 35°22' E 139°53'2 2.0
2016-Aug-19 23:33N 35°23' E 139°51'9 9.5
2016-Aug-19 22:33N 35°32' E 139°53'6 5.6
2016-Aug-19 21:33N 35°37' E 139°58'0 0.0
2016-Aug-19 20:33N 35°37' E 139°58'0 0.0
2016-Aug-19 19:32N 35°37' E 139°58'0 0.1
2016-Aug-19 18:33N 35°37' E 139°58'0 0.0
2016-Aug-19 17:33N 35°37' E 139°58'0 0.0
2016-Aug-19 16:33N 35°37' E 139°58'0 0.0
2016-Aug-19 15:33N 35°37' E 139°58'0 0.0
2016-Aug-19 14:33N 35°37' E 139°58'0 0.0
2016-Aug-19 13:33N 35°37' E 139°58'0 0.0
2016-Aug-19 12:33N 35°37' E 139°58'0 0.0
2016-Aug-19 11:33N 35°37' E 139°58'0 0.0
2016-Aug-19 10:33N 35°37' E 139°58'0 0.0
2016-Aug-19 09:33N 35°37' E 139°58'0 0.0
2016-Aug-19 08:33N 35°37' E 139°58'0 0.0
2016-Aug-19 07:33N 35°37' E 139°58'0 0.0
2016-Aug-19 06:33N 35°37' E 139°58'0 0.0
2016-Aug-19 05:33N 35°37' E 139°58'0 0.0
2016-Aug-19 04:33N 35°37' E 139°58'2 2.1
2016-Aug-19 03:33N 35°39' E 139°58'3 2.5
2016-Aug-19 02:33N 35°41' E 139°57'0 0.0
2016-Aug-19 01:33N 35°41' E 139°57'0 0.0
2016-Aug-19 00:33N 35°41' E 139°57'  

Dump ship's entire track history